createdAt,value
2018-09-24T00:00:08.727Z,96206.17
2018-09-24T00:02:37.804Z,96207.03
2018-09-24T00:05:07.280Z,96222.62
2018-09-24T00:07:36.490Z,96217.68
2018-09-24T00:10:05.762Z,96208.09
2018-09-24T00:12:34.904Z,96214.62
2018-09-24T00:15:04.123Z,96213.02
2018-09-24T00:17:33.394Z,96215.78
2018-09-24T00:20:02.603Z,96216.58
2018-09-24T00:22:31.763Z,96216.86
2018-09-24T00:25:00.955Z,96229.68
2018-09-24T00:27:30.806Z,96221.50
2018-09-24T00:30:00.016Z,96231.88
2018-09-24T00:32:29.151Z,96228.04
2018-09-24T00:34:58.441Z,96221.50
2018-09-24T00:37:27.665Z,96219.34
2018-09-24T00:39:57.119Z,96219.85
2018-09-24T00:42:26.341Z,96231.34
2018-09-24T00:44:55.596Z,96254.80
2018-09-24T00:47:24.790Z,96230.25
2018-09-24T00:49:53.940Z,96237.61
2018-09-24T00:52:23.124Z,96249.34
2018-09-24T00:54:52.314Z,96242.53
2018-09-24T00:57:21.495Z,96258.06
2018-09-24T00:59:50.639Z,96252.03
2018-09-24T01:02:19.756Z,96247.42
2018-09-24T01:04:49.117Z,96242.77
2018-09-24T01:07:18.288Z,96241.94
2018-09-24T01:09:47.417Z,96248.23
2018-09-24T01:12:16.606Z,96251.20
2018-09-24T01:14:45.774Z,96261.28
2018-09-24T01:17:15.058Z,96258.58
2018-09-24T01:19:44.236Z,96259.84
2018-09-24T01:22:13.438Z,96275.09
2018-09-24T01:24:42.571Z,96277.78
2018-09-24T01:27:11.752Z,96287.06
2018-09-24T01:29:41.003Z,96309.70
2018-09-24T01:32:10.297Z,96316.00
2018-09-24T01:34:39.405Z,96324.22
2018-09-24T01:37:08.674Z,96307.57
2018-09-24T01:39:38.075Z,96324.47
2018-09-24T01:42:07.233Z,96322.20
2018-09-24T01:44:36.425Z,96328.77
2018-09-24T01:47:05.591Z,96322.17
2018-09-24T01:49:34.929Z,96329.59
2018-09-24T01:52:04.141Z,96330.14
2018-09-24T01:54:33.333Z,96327.13
2018-09-24T01:57:02.523Z,96335.83
2018-09-24T01:59:31.757Z,96335.55
2018-09-24T02:02:00.953Z,96350.58
2018-09-24T02:04:30.103Z,96354.38
2018-09-24T02:07:01.401Z,96357.34
2018-09-24T02:09:31.211Z,96363.92
2018-09-24T02:12:05.526Z,96361.92
2018-09-24T02:14:34.954Z,96374.82
2018-09-24T02:17:04.147Z,96379.48
2018-09-24T02:19:34.010Z,96379.48
2018-09-24T02:22:03.389Z,96383.57
2018-09-24T02:24:32.504Z,96381.63
2018-09-24T02:27:05.924Z,96390.53
2018-09-24T02:29:35.047Z,96402.30
2018-09-24T02:32:04.190Z,96397.14
2018-09-24T02:34:33.470Z,96393.89
2018-09-24T02:37:02.798Z,96402.02
2018-09-24T02:39:31.959Z,96414.28
2018-09-24T02:42:01.092Z,96412.08
2018-09-24T02:44:30.220Z,96417.00
2018-09-24T02:46:59.360Z,96418.61
2018-09-24T02:49:28.571Z,96431.70
2018-09-24T02:52:02.310Z,96438.56
2018-09-24T02:54:32.741Z,96441.77
2018-09-24T02:57:01.927Z,96446.78
2018-09-24T02:59:31.061Z,96447.70
2018-09-24T03:02:00.203Z,96450.82
2018-09-24T03:04:29.361Z,96458.80
2018-09-24T03:06:58.540Z,96457.09
2018-09-24T03:09:27.689Z,96475.98
2018-09-24T03:11:57.330Z,96472.37
2018-09-24T03:14:27.854Z,96481.97
2018-09-24T03:16:57.135Z,96492.20
2018-09-24T03:19:26.319Z,96498.53
2018-09-24T03:21:55.472Z,96492.72
2018-09-24T03:24:24.572Z,96492.56
2018-09-24T03:26:53.840Z,96493.91
2018-09-24T03:29:24.983Z,96486.80
2018-09-24T03:31:54.207Z,96496.64
2018-09-24T03:34:23.340Z,96492.33
2018-09-24T03:36:52.576Z,96499.45
2018-09-24T03:39:21.708Z,96488.10
2018-09-24T03:41:50.936Z,96494.59
2018-09-24T03:44:20.064Z,96499.82
2018-09-24T03:46:50.178Z,96510.81
2018-09-24T03:49:19.348Z,96514.89
2018-09-24T03:51:48.585Z,96509.88
2018-09-24T03:54:17.793Z,96503.52
2018-09-24T03:56:46.990Z,96516.33
2018-09-24T03:59:16.198Z,96508.59
2018-09-24T04:01:45.444Z,96507.91
2018-09-24T04:04:19.946Z,96510.02
2018-09-24T04:06:54.504Z,96515.41
2018-09-24T04:09:29.048Z,96522.73
2018-09-24T04:12:03.458Z,96545.28
2018-09-24T04:14:37.891Z,96562.34
2018-09-24T04:17:12.406Z,96570.69
2018-09-24T04:19:46.837Z,96571.03
2018-09-24T04:22:21.373Z,96578.16
2018-09-24T04:24:55.738Z,96590.36
2018-09-24T04:27:30.113Z,96592.47
2018-09-24T04:30:04.584Z,96606.31
2018-09-24T04:32:39.093Z,96610.97
2018-09-24T04:35:13.538Z,96612.44
2018-09-24T04:37:48.092Z,96618.48
2018-09-24T04:40:22.578Z,96618.57
2018-09-24T04:42:57.263Z,96622.86
2018-09-24T04:45:31.695Z,96626.26
2018-09-24T04:48:06.258Z,96628.25
2018-09-24T04:50:40.727Z,96639.53
2018-09-24T04:53:15.235Z,96641.64
2018-09-24T04:55:49.707Z,96656.10
2018-09-24T04:58:24.181Z,96662.59
2018-09-24T05:00:58.777Z,96659.69
2018-09-24T05:03:33.265Z,96668.22
2018-09-24T05:06:07.810Z,96665.88
2018-09-24T05:08:42.239Z,96673.20
2018-09-24T05:11:16.915Z,96677.60
2018-09-24T05:13:51.499Z,96679.82
2018-09-24T05:16:26.135Z,96684.32
2018-09-24T05:19:00.571Z,96687.77
2018-09-24T05:21:35.116Z,96698.33
2018-09-24T05:24:09.533Z,96706.34
2018-09-24T05:26:44.206Z,96720.12
2018-09-24T05:29:18.664Z,96727.17
2018-09-24T05:31:53.297Z,96732.52
2018-09-24T05:34:27.892Z,96734.85
2018-09-24T05:37:02.416Z,96737.40
2018-09-24T05:39:36.949Z,96736.83
2018-09-24T05:42:11.766Z,96741.75
2018-09-24T05:44:46.190Z,96744.50
2018-09-24T05:47:20.629Z,96748.45
2018-09-24T05:49:55.028Z,96760.56
2018-09-24T05:52:31.226Z,96762.81
2018-09-24T05:55:06.754Z,96772.57
2018-09-24T05:57:41.182Z,96787.48
2018-09-24T06:00:15.494Z,96791.91
2018-09-24T06:02:49.870Z,96791.13
2018-09-24T06:05:24.164Z,96795.86
2018-09-24T06:07:58.707Z,96798.72
2018-09-24T06:10:33.156Z,96805.00
2018-09-24T06:13:07.501Z,96806.19
2018-09-24T06:15:41.996Z,96816.98
2018-09-24T06:18:16.504Z,96820.23
2018-09-24T06:20:50.940Z,96827.81
2018-09-24T06:23:25.468Z,96828.96
2018-09-24T06:26:00.019Z,96838.66
2018-09-24T06:28:34.746Z,96843.27
2018-09-24T06:31:09.230Z,96847.38
2018-09-24T06:33:43.583Z,96852.92
2018-09-24T06:36:18.174Z,96859.53
2018-09-24T06:38:52.542Z,96861.19
2018-09-24T06:41:26.991Z,96868.21
2018-09-24T06:44:01.433Z,96880.36
2018-09-24T06:46:36.003Z,96874.31
2018-09-24T06:49:10.439Z,96884.77
2018-09-24T06:51:44.866Z,96892.00
2018-09-24T06:54:19.468Z,96897.18
2018-09-24T06:56:53.956Z,96905.62
2018-09-24T06:59:28.501Z,96904.73
2018-09-24T07:02:02.919Z,96910.47
2018-09-24T07:04:37.580Z,96929.08
2018-09-24T07:07:12.032Z,96937.41
2018-09-24T07:09:47.384Z,96934.59
2018-09-24T07:12:21.940Z,96949.09
2018-09-24T07:14:56.465Z,96944.97
2018-09-24T07:17:30.983Z,96954.50
2018-09-24T07:20:05.549Z,96952.98
2018-09-24T07:22:39.887Z,96958.52
2018-09-24T07:25:14.441Z,96958.66
2018-09-24T07:27:48.901Z,96965.53
2018-09-24T07:30:23.368Z,96976.16
2018-09-24T07:32:57.997Z,96972.41
2018-09-24T07:35:32.353Z,96979.67
2018-09-24T07:38:06.822Z,96982.13
2018-09-24T07:40:41.208Z,96987.46
2018-09-24T07:43:15.752Z,97006.09
2018-09-24T07:45:50.187Z,97006.16
2018-09-24T07:48:24.692Z,97011.73
2018-09-24T07:50:59.252Z,97006.23
2018-09-24T07:53:33.638Z,97014.40
2018-09-24T07:56:08.221Z,97013.09
2018-09-24T07:58:42.733Z,97023.02
2018-09-24T08:01:17.213Z,97028.48
2018-09-24T08:03:51.743Z,97024.48
2018-09-24T08:06:26.143Z,97032.03
2018-09-24T08:09:00.732Z,97031.18
2018-09-24T08:11:35.281Z,97041.55
2018-09-24T08:14:09.756Z,97036.15
2018-09-24T08:16:44.253Z,97045.91
2018-09-24T08:19:18.708Z,97052.02
2018-09-24T08:21:53.087Z,97055.13
2018-09-24T08:24:27.706Z,97053.02
2018-09-24T08:27:02.264Z,97058.23
2018-09-24T08:29:36.778Z,97060.38
2018-09-24T08:32:11.248Z,97055.00
2018-09-24T08:34:45.877Z,97059.39
2018-09-24T08:37:20.380Z,97055.30
2018-09-24T08:39:54.888Z,97064.41
2018-09-24T08:42:29.851Z,97064.41
2018-09-24T08:45:04.352Z,97071.23
2018-09-24T08:47:38.822Z,97072.84
2018-09-24T08:50:13.444Z,97070.55
2018-09-24T08:52:48.008Z,97070.13
2018-09-24T08:55:22.513Z,97059.27
2018-09-24T08:57:56.859Z,97067.19
2018-09-24T09:00:31.350Z,97068.55
2018-09-24T09:03:05.831Z,97073.33
2018-09-24T09:05:40.188Z,97078.48
2018-09-24T09:08:14.715Z,97068.91
2018-09-24T09:10:49.035Z,97073.67
2018-09-24T09:13:23.604Z,97072.67
2018-09-24T09:15:58.161Z,97069.50
2018-09-24T09:18:32.781Z,97073.45
2018-09-24T09:21:07.248Z,97082.28
2018-09-24T09:23:41.774Z,97083.34
2018-09-24T09:26:16.243Z,97087.13
2018-09-24T09:28:50.805Z,97094.15
2018-09-24T09:31:25.993Z,97095.53
2018-09-24T09:34:00.460Z,97096.58
2018-09-24T09:36:34.817Z,97105.00
2018-09-24T09:39:09.570Z,97100.86
2018-09-24T09:41:44.100Z,97097.42
2018-09-24T09:44:18.617Z,97103.81
2018-09-24T09:46:53.082Z,97099.95
2018-09-24T09:49:27.466Z,97091.13
2018-09-24T09:52:01.944Z,97096.35
2018-09-24T09:54:36.449Z,97097.16
2018-09-24T09:57:10.976Z,97094.38
2018-09-24T09:59:45.526Z,97104.55
2018-09-24T10:02:20.004Z,97084.61
2018-09-24T10:04:54.384Z,97079.86
2018-09-24T10:07:28.857Z,97088.17
2018-09-24T10:10:03.363Z,97084.00
2018-09-24T10:12:37.765Z,97104.70
2018-09-24T10:15:12.315Z,97094.94
2018-09-24T10:17:46.824Z,97097.20
2018-09-24T10:20:21.236Z,97103.20
2018-09-24T10:22:55.804Z,97104.97
2018-09-24T10:25:30.137Z,97106.66
2018-09-24T10:28:04.615Z,97102.23
2018-09-24T10:30:38.988Z,97104.80
2018-09-24T10:33:13.440Z,97099.07
2018-09-24T10:35:47.954Z,97103.50
2018-09-24T10:38:22.508Z,97114.89
2018-09-24T10:40:57.005Z,97122.59
2018-09-24T10:43:31.560Z,97118.91
2018-09-24T10:46:06.131Z,97121.99
2018-09-24T10:48:40.441Z,97118.63
2018-09-24T10:51:14.972Z,97110.59
2018-09-24T10:53:49.554Z,97113.41
2018-09-24T10:56:24.029Z,97112.05
2018-09-24T10:58:58.404Z,97114.73
2018-09-24T11:01:32.876Z,97106.95
2018-09-24T11:04:07.370Z,97108.19
2018-09-24T11:06:41.684Z,97104.56
2018-09-24T11:09:16.168Z,97102.01
2018-09-24T11:11:50.745Z,97102.47
2018-09-24T11:14:25.280Z,97092.82
2018-09-24T11:16:59.833Z,97100.66
2018-09-24T11:19:34.084Z,97095.63
2018-09-24T11:22:08.605Z,97100.69
2018-09-24T11:24:42.915Z,97098.14
2018-09-24T11:27:17.414Z,97110.89
2018-09-24T11:29:51.829Z,97099.63
2018-09-24T11:32:26.319Z,97109.34
2018-09-24T11:35:00.727Z,97103.97
2018-09-24T11:37:35.384Z,97094.68
2018-09-24T11:40:09.836Z,97097.05
2018-09-24T11:42:44.255Z,97094.88
2018-09-24T11:45:18.752Z,97099.27
2018-09-24T11:47:53.120Z,97099.53
2018-09-24T11:50:27.595Z,97113.88
2018-09-24T11:53:02.202Z,97116.83
2018-09-24T11:55:37.111Z,97108.48
2018-09-24T11:58:11.992Z,97111.67
2018-09-24T12:00:46.499Z,97126.50
2018-09-24T12:03:20.991Z,97103.45
2018-09-24T12:05:55.472Z,97100.12
2018-09-24T12:08:30.040Z,97103.97
2018-09-24T12:11:04.593Z,97108.66
2018-09-24T12:13:39.135Z,97111.18
2018-09-24T12:16:13.869Z,97113.59
2018-09-24T12:18:48.296Z,97109.70
2018-09-24T12:21:22.797Z,97112.33
2018-09-24T12:23:57.293Z,97108.41
2018-09-24T12:26:31.789Z,97108.77
2018-09-24T12:29:06.323Z,97103.45
2018-09-24T12:31:40.900Z,97105.88
2018-09-24T12:34:15.384Z,97107.64
2018-09-24T12:36:50.045Z,97117.17
2018-09-24T12:39:24.457Z,97114.61
2018-09-24T12:41:58.961Z,97110.78
2018-09-24T12:44:33.331Z,97101.84
2018-09-24T12:47:07.869Z,97101.19
2018-09-24T12:49:42.335Z,97103.16
2018-09-24T12:52:16.812Z,97107.49
2018-09-24T12:54:51.133Z,97091.48
2018-09-24T12:57:25.707Z,97106.41
2018-09-24T13:00:00.219Z,97112.73
2018-09-24T13:02:34.654Z,97106.31
2018-09-24T13:05:09.003Z,97100.28
2018-09-24T13:07:43.563Z,97104.83
2018-09-24T13:10:18.087Z,97092.95
2018-09-24T13:12:52.631Z,97095.16
2018-09-24T13:15:27.092Z,97088.28
2018-09-24T13:18:01.589Z,97089.70
2018-09-24T13:20:36.046Z,97086.98
2018-09-24T13:23:10.468Z,97089.66
2018-09-24T13:25:44.807Z,97086.09
2018-09-24T13:28:19.342Z,97091.63
2018-09-24T13:30:53.772Z,97094.23
2018-09-24T13:33:28.451Z,97105.63
2018-09-24T13:36:02.928Z,97095.10
2018-09-24T13:38:37.448Z,97100.53
2018-09-24T13:41:11.959Z,97097.55
2018-09-24T13:43:46.475Z,97092.62
2018-09-24T13:46:20.969Z,97094.28
2018-09-24T13:48:55.323Z,97094.47
2018-09-24T13:51:29.748Z,97102.55
2018-09-24T13:54:04.136Z,97095.11
2018-09-24T13:56:38.583Z,97095.11
2018-09-24T13:59:13.090Z,97098.30
2018-09-24T14:01:47.587Z,97098.30
2018-09-24T14:04:22.048Z,97096.87
2018-09-24T14:06:56.564Z,97098.94
2018-09-24T14:09:31.049Z,97091.03
2018-09-24T14:12:05.348Z,97080.71
2018-09-24T14:14:39.760Z,97081.77
2018-09-24T14:17:14.253Z,97075.41
2018-09-24T14:19:48.830Z,97078.19
2018-09-24T14:22:23.235Z,97084.48
2018-09-24T14:24:57.711Z,97077.98
2018-09-24T14:27:32.200Z,97071.75
2018-09-24T14:30:06.773Z,97074.10
2018-09-24T14:32:41.260Z,97084.70
2018-09-24T14:35:15.789Z,97086.29
2018-09-24T14:37:50.139Z,97080.47
2018-09-24T14:40:24.666Z,97080.47
2018-09-24T14:42:59.153Z,97084.63
2018-09-24T14:45:33.611Z,97078.84
2018-09-24T14:48:07.910Z,97083.91
2018-09-24T14:50:42.385Z,97082.44
2018-09-24T14:53:16.816Z,97075.93
2018-09-24T14:55:51.281Z,97072.34
2018-09-24T14:58:25.783Z,97077.06
2018-09-24T15:01:00.316Z,97070.42
2018-09-24T15:03:34.906Z,97072.44
2018-09-24T15:06:09.350Z,97068.36
2018-09-24T15:08:43.796Z,97074.48
2018-09-24T15:11:18.359Z,97076.47
2018-09-24T15:13:52.700Z,97075.77
2018-09-24T15:16:27.137Z,97074.69
2018-09-24T15:19:01.619Z,97077.33
2018-09-24T15:21:36.304Z,97080.61
2018-09-24T15:24:10.720Z,97076.80
2018-09-24T15:26:45.035Z,97078.03
2018-09-24T15:29:19.504Z,97081.17
2018-09-24T15:31:54.076Z,97071.43
2018-09-24T15:34:28.660Z,97079.83
2018-09-24T15:37:03.070Z,97074.55
2018-09-24T15:39:37.395Z,97075.19
2018-09-24T15:42:11.806Z,97084.38
2018-09-24T15:44:46.244Z,97079.22
2018-09-24T15:47:20.651Z,97084.84
2018-09-24T15:49:55.128Z,97076.84
2018-09-24T15:52:30.270Z,97086.10
2018-09-24T15:55:04.489Z,97083.81
2018-09-24T15:57:38.917Z,97085.30
2018-09-24T16:00:13.785Z,97087.71
2018-09-24T16:02:48.294Z,97081.72
2018-09-24T16:05:22.608Z,97077.48
2018-09-24T16:07:57.194Z,97084.75
2018-09-24T16:10:31.721Z,97093.58
2018-09-24T16:13:06.221Z,97090.03
2018-09-24T16:15:40.612Z,97091.68
2018-09-24T16:18:15.123Z,97090.84
2018-09-24T16:20:49.580Z,97095.52
2018-09-24T16:23:24.112Z,97097.98
2018-09-24T16:25:58.630Z,97102.05
2018-09-24T16:28:33.181Z,97096.02
2018-09-24T16:31:07.536Z,97099.81
2018-09-24T16:33:42.024Z,97096.20
2018-09-24T16:36:16.499Z,97102.25
2018-09-24T16:38:51.032Z,97110.20
2018-09-24T16:41:25.452Z,97110.42
2018-09-24T16:43:59.740Z,97120.03
2018-09-24T16:46:34.531Z,97113.80
2018-09-24T16:49:08.923Z,97123.39
2018-09-24T16:51:43.341Z,97125.55
2018-09-24T16:54:17.725Z,97116.70
2018-09-24T16:56:52.207Z,97122.17
2018-09-24T16:59:26.704Z,97120.22
2018-09-24T17:02:01.176Z,97126.45
2018-09-24T17:04:35.608Z,97130.03
2018-09-24T17:07:10.191Z,97136.81
2018-09-24T17:09:44.698Z,97137.93
2018-09-24T17:12:19.297Z,97140.14
2018-09-24T17:14:53.823Z,97138.61
2018-09-24T17:17:28.225Z,97137.25
2018-09-24T17:20:02.589Z,97132.16
2018-09-24T17:22:36.964Z,97140.64
2018-09-24T17:25:11.369Z,97154.10
2018-09-24T17:27:45.749Z,97161.75
2018-09-24T17:30:20.336Z,97166.61
2018-09-24T17:32:54.770Z,97163.88
2018-09-24T17:35:29.395Z,97161.50
2018-09-24T17:38:03.832Z,97163.55
2018-09-24T17:40:38.250Z,97163.64
2018-09-24T17:43:12.743Z,97169.60
2018-09-24T17:45:47.172Z,97172.06
2018-09-24T17:48:21.569Z,97179.19
2018-09-24T17:50:56.080Z,97175.17
2018-09-24T17:53:30.593Z,97185.16
2018-09-24T17:56:05.147Z,97173.97
2018-09-24T17:58:39.656Z,97184.66
2018-09-24T18:01:14.221Z,97185.88
2018-09-24T18:03:48.799Z,97192.44
2018-09-24T18:06:23.180Z,97194.85
2018-09-24T18:08:57.673Z,97194.67
2018-09-24T18:11:32.111Z,97205.12
2018-09-24T18:14:06.612Z,97201.44
2018-09-24T18:16:41.008Z,97205.80
2018-09-24T18:19:15.520Z,97207.11
2018-09-24T18:21:49.848Z,97210.32
2018-09-24T18:24:24.299Z,97208.13
2018-09-24T18:26:58.808Z,97213.92
2018-09-24T18:29:33.220Z,97214.28
2018-09-24T18:32:07.762Z,97223.20
2018-09-24T18:34:42.280Z,97224.53
2018-09-24T18:37:16.893Z,97229.40
2018-09-24T18:39:51.321Z,97233.23
2018-09-24T18:42:25.712Z,97238.19
2018-09-24T18:45:00.237Z,97238.68
2018-09-24T18:47:34.711Z,97247.66
2018-09-24T18:50:09.309Z,97240.96
2018-09-24T18:52:43.591Z,97245.65
2018-09-24T18:55:18.057Z,97253.52
2018-09-24T18:57:52.605Z,97246.62
2018-09-24T19:00:27.219Z,97247.56
2018-09-24T19:03:01.749Z,97245.14
2018-09-24T19:05:43.174Z,97248.90
2018-09-24T19:08:17.710Z,97244.97
2018-09-24T19:10:52.205Z,97249.44
2018-09-24T19:13:26.692Z,97240.00
2018-09-24T19:16:01.167Z,97251.56
2018-09-24T19:18:35.733Z,97251.91
2018-09-24T19:21:10.132Z,97249.72
2018-09-24T19:23:44.541Z,97249.78
2018-09-24T19:26:19.122Z,97260.44
2018-09-24T19:28:53.584Z,97254.48
2018-09-24T19:31:28.252Z,97256.45
2018-09-24T19:34:02.728Z,97260.02
2018-09-24T19:36:37.187Z,97264.58
2018-09-24T19:39:13.475Z,97262.05
2018-09-24T19:41:48.357Z,97266.13
2018-09-24T19:44:23.069Z,97271.87
2018-09-24T19:46:57.476Z,97272.41
2018-09-24T19:49:32.042Z,97277.63
2018-09-24T19:52:06.505Z,97272.24
2018-09-24T19:54:40.943Z,97273.16
2018-09-24T19:57:15.473Z,97269.61
2018-09-24T19:59:49.872Z,97269.74
2018-09-24T20:02:24.364Z,97272.20
2018-09-24T20:04:58.861Z,97273.39
2018-09-24T20:07:33.283Z,97276.77
2018-09-24T20:10:07.920Z,97278.31
2018-09-24T20:12:42.431Z,97279.09
2018-09-24T20:15:16.997Z,97277.86
2018-09-24T20:17:51.467Z,97280.87
2018-09-24T20:20:25.993Z,97284.19
2018-09-24T20:23:00.376Z,97285.14
2018-09-24T20:25:34.926Z,97285.59
2018-09-24T20:28:09.803Z,97286.83
2018-09-24T20:30:44.172Z,97281.11
2018-09-24T20:33:18.641Z,97285.34
2018-09-24T20:35:53.087Z,97292.16
2018-09-24T20:38:27.729Z,97290.45
2018-09-24T20:41:02.209Z,97288.51
2018-09-24T20:43:36.720Z,97295.67
2018-09-24T20:46:11.137Z,97300.03
2018-09-24T20:48:45.377Z,97296.97
2018-09-24T20:51:19.928Z,97298.23
2018-09-24T20:53:54.287Z,97304.30
2018-09-24T20:56:28.794Z,97303.34
2018-09-24T20:59:03.332Z,97306.12
2018-09-24T21:01:39.149Z,97311.45
2018-09-24T21:04:13.584Z,97312.80
2018-09-24T21:06:48.121Z,97307.02
2018-09-24T21:09:22.639Z,97314.94
2018-09-24T21:11:57.158Z,97311.63
2018-09-24T21:14:31.543Z,97309.91
2018-09-24T21:17:05.892Z,97314.17
2018-09-24T21:19:40.432Z,97315.89
2018-09-24T21:22:14.921Z,97316.31
2018-09-24T21:24:49.259Z,97311.87
2018-09-24T21:27:23.784Z,97315.56
2018-09-24T21:29:58.212Z,97313.59
2018-09-24T21:32:32.627Z,97322.23
2018-09-24T21:35:07.196Z,97318.16
2018-09-24T21:37:41.653Z,97319.27
2018-09-24T21:40:16.171Z,97323.61
2018-09-24T21:42:50.568Z,97319.25
2018-09-24T21:45:24.961Z,97325.74
2018-09-24T21:47:59.406Z,97329.52
2018-09-24T21:50:33.728Z,97330.52
2018-09-24T21:53:08.208Z,97340.55
2018-09-24T21:55:42.785Z,97333.80
2018-09-24T21:58:17.455Z,97337.72
2018-09-24T22:00:51.970Z,97342.23
2018-09-24T22:03:26.524Z,97340.53
2018-09-24T22:06:01.031Z,97342.89
2018-09-24T22:08:35.532Z,97342.84
2018-09-24T22:11:10.017Z,97341.53
2018-09-24T22:13:44.477Z,97341.37
2018-09-24T22:16:19.686Z,97339.86
2018-09-24T22:18:54.231Z,97351.22
2018-09-24T22:21:28.928Z,97347.31
2018-09-24T22:24:03.259Z,97348.57
2018-09-24T22:26:37.587Z,97351.89
2018-09-24T22:29:12.513Z,97346.47
2018-09-24T22:31:46.983Z,97349.23
2018-09-24T22:34:21.538Z,97348.13
2018-09-24T22:36:56.060Z,97344.73
2018-09-24T22:39:30.563Z,97344.74
2018-09-24T22:42:05.039Z,97343.52
2018-09-24T22:44:39.536Z,97345.48
2018-09-24T22:47:14.274Z,97343.61
2018-09-24T22:49:48.726Z,97344.58
2018-09-24T22:52:23.274Z,97341.86
2018-09-24T22:54:57.777Z,97345.94
2018-09-24T22:57:32.219Z,97343.23
2018-09-24T23:00:06.592Z,97343.91
2018-09-24T23:02:41.153Z,97346.86
2018-09-24T23:05:15.392Z,97345.50
2018-09-24T23:07:50.055Z,97348.80
2018-09-24T23:10:24.515Z,97352.42
2018-09-24T23:12:59.346Z,97348.42
2018-09-24T23:15:34.563Z,97349.72
2018-09-24T23:18:09.034Z,97351.52
2018-09-24T23:20:43.609Z,97349.95
2018-09-24T23:23:18.148Z,97351.20
2018-09-24T23:25:52.891Z,97353.72
2018-09-24T23:28:27.343Z,97358.93
2018-09-24T23:31:01.748Z,97355.00
2018-09-24T23:33:36.275Z,97365.85
2018-09-24T23:36:10.719Z,97371.05
2018-09-24T23:38:45.302Z,97370.16
2018-09-24T23:41:19.857Z,97368.25
2018-09-24T23:43:54.390Z,97377.02
2018-09-24T23:46:29.001Z,97374.58
2018-09-24T23:49:03.287Z,97378.34
2018-09-24T23:51:37.845Z,97383.01
2018-09-24T23:54:12.371Z,97380.50
2018-09-24T23:56:46.763Z,97378.76
2018-09-24T23:59:21.622Z,97390.17
